createdAt,value
2023-04-12T00:00:17.837Z,30.73
2023-04-12T00:02:44.908Z,24.70
2023-04-12T00:05:12.043Z,26.35
2023-04-12T00:07:39.243Z,21.60
2023-04-12T00:10:08.153Z,32.97
2023-04-12T00:12:35.074Z,29.27
2023-04-12T00:15:01.955Z,37.88
2023-04-12T00:17:28.839Z,32.88
2023-04-12T00:19:55.845Z,22.67
2023-04-12T00:22:22.821Z,26.75
2023-04-12T00:24:49.659Z,23.70
2023-04-12T00:27:16.480Z,22.77
2023-04-12T00:29:43.355Z,36.53
2023-04-12T00:32:10.182Z,23.38
2023-04-12T00:34:37.009Z,21.70
2023-04-12T00:37:03.886Z,30.15
2023-04-12T00:39:30.698Z,9.82
2023-04-12T00:41:57.617Z,15.95
2023-04-12T00:44:24.733Z,11.68
2023-04-12T00:46:51.903Z,22.90
2023-04-12T00:49:18.714Z,21.98
2023-04-12T00:51:45.839Z,30.33
2023-04-12T00:54:14.410Z,20.42
2023-04-12T00:56:41.417Z,17.30
2023-04-12T00:59:08.574Z,30.55
2023-04-12T01:01:35.522Z,23.77
2023-04-12T01:04:04.565Z,29.77
2023-04-12T01:06:41.792Z,32.97
2023-04-12T01:09:35.905Z,25.88
2023-04-12T01:12:32.390Z,27.17
2023-04-12T01:15:12.513Z,31.60
2023-04-12T01:17:58.297Z,40.63
2023-04-12T01:20:31.761Z,22.83
2023-04-12T01:23:23.306Z,22.02
2023-04-12T01:26:00.265Z,30.13
2023-04-12T01:28:33.825Z,39.00
2023-04-12T01:31:06.626Z,28.67
2023-04-12T01:33:36.752Z,32.92
2023-04-12T01:36:11.507Z,27.75
2023-04-12T01:38:43.584Z,25.25
2023-04-12T01:41:10.838Z,31.95
2023-04-12T01:43:45.586Z,26.35
2023-04-12T01:46:18.917Z,38.45
2023-04-12T01:48:52.781Z,40.97
2023-04-12T01:51:42.617Z,29.73
2023-04-12T01:54:13.959Z,25.80
2023-04-12T01:56:46.291Z,34.15
2023-04-12T01:59:16.031Z,35.50
2023-04-12T02:01:44.391Z,44.75
2023-04-12T02:04:12.619Z,24.67
2023-04-12T02:06:40.374Z,32.47
2023-04-12T02:09:07.244Z,23.05
2023-04-12T02:11:34.789Z,43.88
2023-04-12T02:14:01.651Z,32.67
2023-04-12T02:16:32.397Z,21.27
2023-04-12T02:18:59.418Z,28.00
2023-04-12T02:21:27.785Z,28.58
2023-04-12T02:23:55.034Z,29.35
2023-04-12T02:26:23.679Z,21.60
2023-04-12T02:28:50.763Z,23.00
2023-04-12T02:31:17.712Z,21.30
2023-04-12T02:33:45.786Z,27.45
2023-04-12T02:36:12.893Z,22.25
2023-04-12T02:38:39.811Z,19.27
2023-04-12T02:41:07.015Z,17.92
2023-04-12T02:43:33.971Z,20.20
2023-04-12T02:46:01.076Z,23.42
2023-04-12T02:48:27.907Z,15.52
2023-04-12T02:50:54.692Z,13.88
2023-04-12T02:53:21.732Z,13.88
2023-04-12T02:55:48.566Z,14.98
2023-04-12T02:58:15.456Z,18.20
2023-04-12T03:00:43.703Z,14.27
2023-04-12T03:03:10.731Z,14.80
2023-04-12T03:05:38.012Z,11.98
2023-04-12T03:08:04.985Z,23.92
2023-04-12T03:10:31.817Z,13.23
2023-04-12T03:12:58.597Z,26.17
2023-04-12T03:15:25.621Z,14.90
2023-04-12T03:17:52.779Z,18.13
2023-04-12T03:20:20.489Z,28.75
2023-04-12T03:22:47.304Z,25.33
2023-04-12T03:25:14.171Z,15.10
2023-04-12T03:27:41.037Z,13.75
2023-04-12T03:30:08.846Z,23.48
2023-04-12T03:32:35.715Z,16.02
2023-04-12T03:35:03.388Z,21.33
2023-04-12T03:37:30.429Z,23.40
2023-04-12T03:39:57.191Z,18.45
2023-04-12T03:42:33.026Z,23.10
2023-04-12T03:45:01.119Z,31.83
2023-04-12T03:47:28.077Z,17.45
2023-04-12T03:50:12.356Z,17.17
2023-04-12T03:52:39.673Z,20.88
2023-04-12T03:55:07.606Z,19.65
2023-04-12T03:57:35.212Z,34.10
2023-04-12T04:00:02.591Z,35.65
2023-04-12T04:02:30.002Z,30.75
2023-04-12T04:04:57.236Z,30.40
2023-04-12T04:07:24.298Z,18.45
2023-04-12T04:09:51.065Z,23.23
2023-04-12T04:12:17.833Z,21.20
2023-04-12T04:14:44.856Z,18.10
2023-04-12T04:17:11.689Z,21.45
2023-04-12T04:19:39.056Z,35.17
2023-04-12T04:22:05.843Z,29.45
2023-04-12T04:24:34.204Z,17.25
2023-04-12T04:27:01.211Z,21.90
2023-04-12T04:29:29.152Z,19.02
2023-04-12T04:31:57.437Z,19.45
2023-04-12T04:34:25.550Z,20.45
2023-04-12T04:36:52.812Z,18.08
2023-04-12T04:39:19.584Z,20.55
2023-04-12T04:41:46.540Z,18.58
2023-04-12T04:44:13.413Z,23.40
2023-04-12T04:46:40.221Z,20.58
2023-04-12T04:49:07.179Z,22.63
2023-04-12T04:51:33.990Z,29.25
2023-04-12T04:54:02.137Z,21.20
2023-04-12T04:56:29.173Z,20.13
2023-04-12T04:58:57.222Z,25.55
2023-04-12T05:01:28.351Z,18.98
2023-04-12T05:03:56.168Z,25.90
2023-04-12T05:06:23.644Z,32.65
2023-04-12T05:08:52.250Z,35.45
2023-04-12T05:11:19.767Z,23.67
2023-04-12T05:13:46.713Z,25.20
2023-04-12T05:16:13.788Z,24.73
2023-04-12T05:18:40.807Z,21.42
2023-04-12T05:21:07.789Z,20.85
2023-04-12T05:23:42.397Z,29.40
2023-04-12T05:26:09.191Z,24.80
2023-04-12T05:28:36.244Z,22.73
2023-04-12T05:31:03.092Z,32.65
2023-04-12T05:33:31.581Z,35.33
2023-04-12T05:35:59.804Z,25.55
2023-04-12T05:38:27.086Z,40.90
2023-04-12T05:40:59.311Z,26.88
2023-04-12T05:43:26.045Z,28.90
2023-04-12T05:45:53.085Z,31.80
2023-04-12T05:48:21.175Z,24.05
2023-04-12T05:50:52.574Z,27.67
2023-04-12T05:53:19.435Z,18.52
2023-04-12T05:55:46.296Z,18.58
2023-04-12T05:58:13.646Z,25.25
2023-04-12T06:00:44.035Z,23.15
2023-04-12T06:03:11.558Z,23.85
2023-04-12T06:05:39.143Z,18.15
2023-04-12T06:08:06.424Z,30.20
2023-04-12T06:10:33.227Z,25.02
2023-04-12T06:13:00.179Z,21.58
2023-04-12T06:15:26.931Z,18.33
2023-04-12T06:17:53.841Z,28.83
2023-04-12T06:20:20.897Z,32.80
2023-04-12T06:22:47.686Z,33.10
2023-04-12T06:25:16.469Z,39.22
2023-04-12T06:27:43.833Z,22.75
2023-04-12T06:30:11.441Z,29.60
2023-04-12T06:32:38.676Z,20.55
2023-04-12T06:35:06.079Z,21.50
2023-04-12T06:37:32.839Z,30.55
2023-04-12T06:39:59.801Z,22.67
2023-04-12T06:42:26.653Z,26.60
2023-04-12T06:44:53.416Z,20.52
2023-04-12T06:47:22.949Z,16.30
2023-04-12T06:49:53.236Z,17.10
2023-04-12T06:52:23.911Z,12.43
2023-04-12T06:54:50.648Z,21.60
2023-04-12T06:57:17.750Z,13.70
2023-04-12T06:59:44.835Z,11.88
2023-04-12T07:02:12.129Z,12.13
2023-04-12T07:04:38.939Z,10.57
2023-04-12T07:07:07.064Z,9.68
2023-04-12T07:09:33.921Z,9.90
2023-04-12T07:12:02.380Z,7.45
2023-04-12T07:14:29.253Z,9.95
2023-04-12T07:16:56.033Z,8.45
2023-04-12T07:19:22.834Z,18.55
2023-04-12T07:21:52.446Z,10.20
2023-04-12T07:24:19.353Z,10.75
2023-04-12T07:26:46.527Z,17.40
2023-04-12T07:29:14.736Z,10.00
2023-04-12T07:31:41.654Z,5.35
2023-04-12T07:34:08.811Z,6.03
2023-04-12T07:36:35.710Z,7.40
2023-04-12T07:39:02.545Z,8.52
2023-04-12T07:41:29.338Z,11.07
2023-04-12T07:43:56.579Z,9.18
2023-04-12T07:46:23.404Z,4.82
2023-04-12T07:48:51.625Z,5.38
2023-04-12T07:51:18.512Z,8.50
2023-04-12T07:53:48.276Z,7.43
2023-04-12T07:56:15.556Z,10.27
2023-04-12T07:58:42.402Z,3.65
2023-04-12T08:01:11.912Z,5.38
2023-04-12T08:03:38.967Z,7.75
2023-04-12T08:06:06.712Z,12.65
2023-04-12T08:08:33.934Z,4.93
2023-04-12T08:11:02.919Z,12.30
2023-04-12T08:13:29.648Z,6.35
2023-04-12T08:15:56.516Z,11.65
2023-04-12T08:18:23.293Z,4.05
2023-04-12T08:20:50.126Z,6.05
2023-04-12T08:23:17.350Z,12.23
2023-04-12T08:25:44.152Z,3.55
2023-04-12T08:28:11.198Z,8.40
2023-04-12T08:30:38.359Z,4.65
2023-04-12T08:33:05.653Z,19.55
2023-04-12T08:35:32.900Z,7.68
2023-04-12T08:38:07.650Z,31.13
2023-04-12T08:40:35.420Z,8.20
2023-04-12T08:43:05.803Z,6.13
2023-04-12T08:45:34.216Z,15.65
2023-04-12T08:48:03.835Z,5.38
2023-04-12T08:50:31.408Z,4.72
2023-04-12T08:53:01.081Z,5.50
2023-04-12T08:55:28.907Z,19.85
2023-04-12T08:57:56.873Z,6.45
2023-04-12T09:00:24.184Z,7.68
2023-04-12T09:02:53.344Z,6.18
2023-04-12T09:05:20.497Z,8.48
2023-04-12T09:07:47.359Z,6.70
2023-04-12T09:10:32.696Z,7.50
2023-04-12T09:13:00.567Z,6.30
2023-04-12T09:15:28.715Z,13.57
2023-04-12T09:18:10.369Z,6.38
2023-04-12T09:20:38.271Z,7.50
2023-04-12T09:23:22.452Z,10.82
2023-04-12T09:25:52.018Z,9.20
2023-04-12T09:28:27.113Z,8.88
2023-04-12T09:30:55.757Z,12.07
2023-04-12T09:33:34.157Z,5.63
2023-04-12T09:36:02.915Z,14.82
2023-04-12T09:38:31.166Z,4.47
2023-04-12T09:40:58.197Z,5.38
2023-04-12T09:43:39.068Z,6.47
2023-04-12T09:46:14.766Z,7.47
2023-04-12T09:48:48.358Z,12.45
2023-04-12T09:51:33.160Z,5.35
2023-04-12T09:54:05.610Z,3.53
2023-04-12T09:56:36.824Z,7.88
2023-04-12T09:59:07.539Z,6.65
2023-04-12T10:01:39.119Z,5.50
2023-04-12T10:04:07.760Z,4.10
2023-04-12T10:06:36.218Z,3.33
2023-04-12T10:09:06.817Z,6.85
2023-04-12T10:11:34.226Z,6.72
2023-04-12T10:14:03.381Z,7.78
2023-04-12T10:16:31.120Z,4.15
2023-04-12T10:19:04.432Z,9.73
2023-04-12T10:21:32.000Z,8.00
2023-04-12T10:23:59.708Z,4.10
2023-04-12T10:26:27.654Z,9.18
2023-04-12T10:29:23.975Z,6.70
2023-04-12T10:31:51.723Z,8.75
2023-04-12T10:34:23.291Z,5.63
2023-04-12T10:37:04.296Z,7.43
2023-04-12T10:39:43.064Z,4.18
2023-04-12T10:42:25.139Z,7.18
2023-04-12T10:44:58.759Z,7.68
2023-04-12T10:50:27.421Z,4.75
2023-04-12T10:53:25.278Z,7.38
2023-04-12T10:55:52.321Z,6.78
2023-04-12T10:58:48.506Z,8.00
2023-04-12T11:01:18.458Z,6.75
2023-04-12T11:04:07.612Z,9.20
2023-04-12T11:07:11.664Z,9.60
2023-04-12T11:09:48.680Z,4.70
2023-04-12T11:15:41.456Z,8.40
2023-04-12T11:20:40.847Z,10.52
2023-04-12T11:23:10.637Z,5.80
2023-04-12T11:25:38.584Z,6.63
2023-04-12T11:28:17.190Z,6.82
2023-04-12T11:30:53.673Z,11.52
2023-04-12T11:33:36.761Z,4.47
2023-04-12T11:36:08.721Z,9.55
2023-04-12T11:38:37.772Z,10.32
2023-04-12T11:41:08.201Z,8.98
2023-04-12T11:43:38.624Z,8.40
2023-04-12T11:48:47.730Z,7.55
2023-04-12T11:51:31.634Z,16.13
2023-04-12T11:53:59.681Z,10.07
2023-04-12T11:56:27.297Z,5.25
2023-04-12T11:58:54.160Z,7.93
2023-04-12T12:01:22.189Z,6.90
2023-04-12T12:03:50.035Z,5.43
2023-04-12T12:06:18.010Z,9.60
2023-04-12T12:08:45.285Z,12.90
2023-04-12T12:11:12.634Z,6.57
2023-04-12T12:13:49.376Z,12.20
2023-04-12T12:16:17.501Z,8.02
2023-04-12T12:18:46.362Z,7.68
2023-04-12T12:21:14.537Z,5.55
2023-04-12T12:23:46.078Z,12.57
2023-04-12T12:26:24.600Z,7.10
2023-04-12T12:28:56.259Z,9.75
2023-04-12T12:31:26.635Z,12.80
2023-04-12T12:33:58.629Z,8.73
2023-04-12T12:36:33.126Z,8.20
2023-04-12T12:39:10.523Z,8.88
2023-04-12T12:41:37.997Z,15.73
2023-04-12T12:44:05.075Z,7.00
2023-04-12T12:46:50.678Z,6.05
2023-04-12T12:49:19.134Z,8.95
2023-04-12T12:51:46.739Z,7.55
2023-04-12T12:54:25.054Z,11.85
2023-04-12T12:57:03.433Z,18.20
2023-04-12T12:59:30.575Z,10.90
2023-04-12T13:01:57.429Z,8.25
2023-04-12T13:04:24.742Z,9.27
2023-04-12T13:06:52.293Z,8.05
2023-04-12T13:09:19.032Z,7.32
2023-04-12T13:11:46.003Z,9.10
2023-04-12T13:14:12.762Z,11.50
2023-04-12T13:16:40.960Z,14.90
2023-04-12T13:19:08.278Z,9.43
2023-04-12T13:21:35.141Z,11.88
2023-04-12T13:24:02.302Z,9.80
2023-04-12T13:26:29.078Z,10.98
2023-04-12T13:28:56.023Z,9.63
2023-04-12T13:31:23.230Z,7.38
2023-04-12T13:33:49.967Z,5.80
2023-04-12T13:36:16.669Z,8.65
2023-04-12T13:38:43.780Z,15.07
2023-04-12T13:41:10.744Z,8.20
2023-04-12T13:43:37.510Z,7.60
2023-04-12T13:46:04.467Z,9.45
2023-04-12T13:48:33.917Z,6.60
2023-04-12T13:51:04.188Z,6.47
2023-04-12T13:53:31.276Z,5.65
2023-04-12T13:55:58.076Z,5.07
2023-04-12T13:58:25.806Z,6.40
2023-04-12T14:00:54.445Z,11.93
2023-04-12T14:03:22.331Z,5.53
2023-04-12T14:05:49.131Z,8.63
2023-04-12T14:08:29.380Z,4.82
2023-04-12T14:10:56.474Z,11.65
2023-04-12T14:13:24.104Z,8.77
2023-04-12T14:15:51.758Z,6.72
2023-04-12T14:18:19.882Z,12.73
2023-04-12T14:20:52.307Z,13.85
2023-04-12T14:23:19.420Z,6.82
2023-04-12T14:25:46.355Z,8.27
2023-04-12T14:28:16.811Z,8.77
2023-04-12T14:30:44.257Z,3.67
2023-04-12T14:33:11.549Z,3.25
2023-04-12T14:35:38.471Z,2.67
2023-04-12T14:38:05.971Z,5.28
2023-04-12T14:40:32.756Z,7.13
2023-04-12T14:42:59.512Z,12.00
2023-04-12T14:45:27.616Z,6.95
2023-04-12T14:47:54.778Z,4.88
2023-04-12T14:50:22.021Z,7.13
2023-04-12T14:52:49.418Z,4.60
2023-04-12T14:55:19.400Z,8.35
2023-04-12T14:57:46.187Z,5.05
2023-04-12T15:03:12.023Z,8.15
2023-04-12T15:05:40.301Z,14.57
2023-04-12T15:08:07.163Z,6.70
2023-04-12T15:10:36.458Z,5.60
2023-04-12T15:16:42.484Z,9.27
2023-04-12T15:19:16.719Z,7.32
2023-04-12T15:21:46.714Z,9.52
2023-04-12T15:24:13.547Z,6.18
2023-04-12T15:26:40.387Z,5.07
2023-04-12T15:29:29.306Z,3.38
2023-04-12T15:31:59.066Z,8.43
2023-04-12T15:34:28.350Z,7.70
2023-04-12T15:36:55.161Z,9.32
2023-04-12T15:39:22.293Z,10.10
2023-04-12T15:41:49.172Z,6.70
2023-04-12T15:44:16.137Z,8.52
2023-04-12T15:46:43.188Z,7.05
2023-04-12T15:49:11.268Z,10.35
2023-04-12T15:51:38.516Z,6.65
2023-04-12T15:54:06.249Z,5.55
2023-04-12T15:56:34.484Z,8.15
2023-04-12T15:59:01.820Z,11.80
2023-04-12T16:01:28.824Z,8.60
2023-04-12T16:03:55.949Z,12.95
2023-04-12T16:06:24.352Z,9.52
2023-04-12T16:08:54.500Z,11.40
2023-04-12T16:11:23.906Z,9.27
2023-04-12T16:13:52.546Z,11.93
2023-04-12T16:16:22.520Z,6.40
2023-04-12T16:18:49.827Z,12.32
2023-04-12T16:21:20.374Z,6.07
2023-04-12T16:23:48.864Z,7.68
2023-04-12T16:26:21.851Z,10.00
2023-04-12T16:28:50.341Z,6.07
2023-04-12T16:31:19.590Z,9.05
2023-04-12T16:33:48.927Z,7.30
2023-04-12T16:36:16.532Z,9.82
2023-04-12T16:38:46.762Z,8.75
2023-04-12T16:41:13.745Z,15.15
2023-04-12T16:43:42.068Z,9.30
2023-04-12T16:46:10.952Z,10.63
2023-04-12T16:52:09.841Z,7.80
2023-04-12T16:54:36.617Z,12.93
2023-04-12T16:57:04.077Z,11.60
2023-04-12T16:59:34.421Z,10.63
2023-04-12T17:02:01.436Z,9.18
2023-04-12T17:04:28.415Z,6.15
2023-04-12T17:06:55.346Z,12.13
2023-04-12T17:09:22.159Z,13.68
2023-04-12T17:11:48.927Z,9.45
2023-04-12T17:14:15.699Z,9.25
2023-04-12T17:16:42.545Z,13.93
2023-04-12T17:19:10.442Z,11.80
2023-04-12T17:21:44.685Z,12.13
2023-04-12T17:24:12.085Z,5.65
2023-04-12T17:26:40.294Z,7.60
2023-04-12T17:29:07.358Z,7.25
2023-04-12T17:31:35.873Z,6.95
2023-04-12T17:34:04.526Z,10.02
2023-04-12T17:36:31.656Z,11.50
2023-04-12T17:39:00.367Z,8.07
2023-04-12T17:41:28.194Z,9.75
2023-04-12T17:43:55.459Z,13.00
2023-04-12T17:46:24.156Z,13.88
2023-04-12T17:48:52.148Z,11.05
2023-04-12T17:51:19.069Z,7.30
2023-04-12T17:53:46.133Z,11.77
2023-04-12T17:56:12.900Z,9.35
2023-04-12T17:58:39.648Z,9.85
2023-04-12T18:01:06.661Z,16.08
2023-04-12T18:03:34.578Z,5.93
2023-04-12T18:06:04.050Z,13.50
2023-04-12T18:08:30.818Z,10.48
2023-04-12T18:10:57.949Z,11.25
2023-04-12T18:13:24.849Z,6.85
2023-04-12T18:15:51.922Z,16.00
2023-04-12T18:18:18.745Z,11.63
2023-04-12T18:20:45.677Z,12.15
2023-04-12T18:23:12.458Z,11.63
2023-04-12T18:25:39.310Z,11.25
2023-04-12T18:28:07.949Z,9.52
2023-04-12T18:30:35.361Z,10.73
2023-04-12T18:33:03.914Z,12.20
2023-04-12T18:35:31.642Z,13.52
2023-04-12T18:37:58.485Z,12.98
2023-04-12T18:40:25.344Z,9.68
2023-04-12T18:42:52.954Z,11.18
2023-04-12T18:45:20.065Z,11.18
2023-04-12T18:47:46.936Z,10.90
2023-04-12T18:50:14.611Z,14.20
2023-04-12T18:52:50.984Z,8.98
2023-04-12T18:55:17.973Z,13.93
2023-04-12T18:57:45.618Z,14.65
2023-04-12T19:00:17.074Z,8.55
2023-04-12T19:02:43.948Z,9.60
2023-04-12T19:05:11.745Z,7.00
2023-04-12T19:07:38.594Z,10.93
2023-04-12T19:10:05.797Z,10.70
2023-04-12T19:12:33.155Z,9.52
2023-04-12T19:15:01.482Z,10.63
2023-04-12T19:17:29.232Z,9.93
2023-04-12T19:19:56.229Z,10.63
2023-04-12T19:22:26.425Z,10.20
2023-04-12T19:24:53.769Z,7.63
2023-04-12T19:27:22.919Z,6.78
2023-04-12T19:29:53.555Z,14.25
2023-04-12T19:32:20.354Z,7.10
2023-04-12T19:37:54.668Z,12.73
2023-04-12T19:40:21.574Z,9.48
2023-04-12T19:42:48.384Z,14.18
2023-04-12T19:51:44.963Z,5.72
2023-04-12T19:54:28.948Z,11.02
2023-04-12T19:57:01.305Z,9.32
2023-04-12T19:59:49.267Z,7.38
2023-04-12T20:02:19.416Z,10.80
2023-04-12T20:08:15.260Z,6.72
2023-04-12T20:10:59.408Z,14.65
2023-04-12T20:13:39.000Z,11.43
2023-04-12T20:26:29.151Z,7.32
2023-04-12T20:29:18.383Z,8.20
2023-04-12T20:32:01.507Z,10.57
2023-04-12T20:35:11.482Z,6.22
2023-04-12T20:38:19.136Z,6.00
2023-04-12T20:40:59.020Z,7.65
2023-04-12T20:49:45.480Z,9.02
2023-04-12T20:58:57.432Z,6.60
2023-04-12T21:01:31.170Z,10.15
2023-04-12T21:04:13.740Z,4.95
2023-04-12T21:09:30.857Z,9.48
2023-04-12T21:11:57.858Z,6.95
2023-04-12T21:14:25.099Z,7.18
2023-04-12T21:16:52.493Z,10.68
2023-04-12T21:19:19.432Z,8.50
2023-04-12T21:21:46.335Z,7.32
2023-04-12T21:24:13.656Z,10.60
2023-04-12T21:26:42.291Z,10.48
2023-04-12T21:29:09.283Z,10.05
2023-04-12T21:31:38.975Z,14.75
2023-04-12T21:34:07.179Z,10.25
2023-04-12T21:36:34.159Z,13.93
2023-04-12T21:39:01.248Z,9.85
2023-04-12T21:41:29.663Z,13.25
2023-04-12T21:43:56.693Z,14.13
2023-04-12T21:46:27.595Z,13.80
2023-04-12T21:48:54.668Z,12.45
2023-04-12T21:51:23.399Z,11.70
2023-04-12T21:53:50.185Z,14.35
2023-04-12T21:56:16.965Z,19.52
2023-04-12T21:58:43.762Z,10.57
2023-04-12T22:01:10.572Z,11.30
2023-04-12T22:03:37.515Z,14.60
2023-04-12T22:06:05.451Z,12.95
2023-04-12T22:08:32.978Z,14.32
2023-04-12T22:11:00.396Z,15.18
2023-04-12T22:13:27.570Z,14.48
2023-04-12T22:15:54.353Z,16.30
2023-04-12T22:18:22.024Z,14.85
2023-04-12T22:20:48.828Z,12.73
2023-04-12T22:23:18.118Z,14.38
2023-04-12T22:25:45.666Z,18.13
2023-04-12T22:28:14.530Z,24.42
2023-04-12T22:30:41.321Z,16.05
2023-04-12T22:33:08.512Z,14.50
2023-04-12T22:35:36.445Z,16.45
2023-04-12T22:38:04.108Z,15.15
2023-04-12T22:40:31.071Z,24.58
2023-04-12T22:42:58.244Z,16.48
2023-04-12T22:45:25.166Z,14.93
2023-04-12T22:47:52.870Z,21.02
2023-04-12T22:50:20.388Z,15.57
2023-04-12T22:52:49.749Z,21.48
2023-04-12T22:55:18.098Z,17.67
2023-04-12T22:57:44.994Z,22.33
2023-04-12T23:00:15.691Z,16.38
2023-04-12T23:02:43.943Z,18.25
2023-04-12T23:05:12.042Z,19.70
2023-04-12T23:07:41.209Z,18.35
2023-04-12T23:10:08.918Z,15.85
2023-04-12T23:12:37.140Z,16.45
2023-04-12T23:15:04.294Z,21.40
2023-04-12T23:17:31.373Z,16.67
2023-04-12T23:20:01.623Z,17.98
2023-04-12T23:22:55.308Z,13.25
2023-04-12T23:25:41.362Z,12.55
2023-04-12T23:28:13.536Z,13.15
2023-04-12T23:30:48.883Z,12.13
2023-04-12T23:33:20.325Z,12.05
2023-04-12T23:35:53.074Z,14.60
2023-04-12T23:38:24.460Z,11.95
2023-04-12T23:40:53.899Z,14.95
2023-04-12T23:43:22.013Z,14.02
2023-04-12T23:45:49.331Z,12.63
2023-04-12T23:48:19.290Z,12.50
2023-04-12T23:50:46.552Z,13.52
2023-04-12T23:53:13.797Z,12.73
2023-04-12T23:55:42.710Z,15.77
2023-04-12T23:58:09.850Z,11.40
